York, NE (68467)

10:08 AM CDT on August 01, 2015 (GMT -0500)
SLS - SW York, NE | | Change Station
CLOSE
Current Station
Personal Weather Station
Location: York, NE
Elevation: 1647 ft
Nearby Weather Stations

Elev 1647 ft 40.86 °N, 97.61 °W | Updated 1 minute ago

Overcast
Overcast
66.3 °F
Feels Like 66.3 °F
N
3.0
Wind Variable Wind from ENE
Gusts 3.0 mph

Today
High -- | Low -- °F
--% Chance of Precip.
Yesterday
High -- | Low -- °F
Precip. -- in
6:26 AM 8:46 PM
Full, 98% visible
Pressure 30.11 in
Visibility 10.0 miles
Clouds Few 12000 ft
Dew Point 61 °F
Humidity 82%
Rainfall 0.30 in
Snow Depth Not available.
UV 4 out of 12
Pollen 7.20 out of 12
Air Quality Not available.
Flu Activity Not available.
METAR KJYR 011455Z AUTO 04011KT 10SM -RA FEW120 19/17 A3011 RMK AO2

More Conditions Fewer Conditions

Pressure 30.11 in
Visibility 10.0 miles
Clouds Few 12000 ft
Dew Point 61 °F
Humidity 82%
Rainfall 0.30 in
Snow Depth Not available.
UV 4 out of 12
Pollen 7.20 out of 12
Air Quality Not available.
Flu Activity Not available.
METAR KJYR 011455Z AUTO 04011KT 10SM -RA FEW120 19/17 A3011 RMK AO2

More Conditions Fewer Conditions

10-Day Weather Forecast

×

Almanac

Astronomy

Aug. 01, 2015 Rise Set
Actual Time
Civil Twilight
Nautical Twilight
Astronomical Twilight
Moon
Length of Visible Light
Length of Day
Tomorrow will be .
, % of the Moon is Illuminated

Today's Extremes

State Highs State Lows

Community

WunderPhotos

Upload Photos

1,842,959 photos uploaded!

WunderBlogs® & News

Nearby

Air Quality

  Air Quality AQ Index Pollutant
Not available.

Snow Depth

Station Depth Elevation

Earthquake Activity

City Distance Mag. Time & Date
Minimum magnitude displayed is 2.5.

Coastal Water Temperatures

Place Temperature

Stations

Nearby Weather Stations

Station Location Temp. Windchill Dew Point Humidity Wind Precip. Elev Updated Type